Haicheng, China
Current Conditions -  °F | °C
As of 7:00 AM on Saturday 20 Dec 2014 (Local Time) from ZYTX Reporting Station
Clear Clear  
Wind Chill: -10°   Ceiling: Unl
Heat Index:   Visibility: 4mi
Dew Point: -4°   Wind: 4mph
Humidity: 85%   Direction: 160°SSE
Pressure: 30.27"   Gusts: NA
Location:  40.86°N, 122.74°E
Report Text: ZYTX 192300Z 16002MPS 6000 NSC M18/M20 Q1025 NOSIG
Loading
Personal Weather Stations






























Interactive Weather Map New forecast layout! Learn more

10-Day Weather Forecast

Advertisements
Track Severe Weather on mobile